Time;durP1;ratioP1;P1;durP2;ratioP2;P2;SDS_P1;SDS_P2;PMS_P1;PMS_P2;Temp;Humidity;BMP_temperature;BMP_pressure;BME280_temperature;BME280_humidity;BME280_pressure;Samples;Min_cycle;Max_cycle;Signal;HPM_P1;HPM_P2
2022/11/28 00:02:06;;;;;;;;;;;15.20;99.90;;;;;;4990872;28;20190;-77
2022/11/28 00:04:31;;;;;;;;;;;15.40;99.90;;;;;;4994722;28;19914;-78
2022/11/28 00:06:57;;;;;;;;;;;15.40;99.90;;;;;;4986767;28;20122;-78
2022/11/28 00:09:23;;;;;;;;;;;15.60;99.90;;;;;;4986699;28;19914;-76
2022/11/28 00:11:49;;;;;;;;;;;15.40;99.90;;;;;;4989311;28;19918;-77
2022/11/28 00:14:15;;;;;;;;;;;15.30;99.90;;;;;;4988496;28;19921;-78
2022/11/28 00:16:41;;;;;;;;;;;15.50;99.90;;;;;;4986641;28;19914;-77
2022/11/28 00:19:07;;;;;;;;;;;15.40;99.90;;;;;;5005353;28;19943;-78
2022/11/28 00:21:33;;;;;;;;;;;15.50;99.90;;;;;;4990285;28;19910;-78
2022/11/28 00:23:59;;;;;;;;;;;15.50;99.90;;;;;;4991369;28;20343;-79
2022/11/28 00:26:26;;;;;;;;;;;15.60;99.90;;;;;;4989660;28;19949;-79
2022/11/28 00:28:52;;;;;;;;;;;15.70;99.90;;;;;;4988771;28;20414;-78
2022/11/28 00:31:19;;;;;;;;;;;15.70;99.90;;;;;;4998395;28;19957;-77
2022/11/28 00:33:44;;;;;;;;;;;15.60;99.90;;;;;;4986751;28;19909;-77
2022/11/28 00:36:10;;;;;;;;;;;15.70;99.90;;;;;;4985349;28;19910;-77
2022/11/28 00:38:36;;;;;;;;;;;15.80;99.90;;;;;;4987265;28;19914;-78
2022/11/28 00:41:03;;;;;;;;;;;15.90;99.90;;;;;;4988520;28;19916;-78
2022/11/28 00:43:29;;;;;;;;;;;16.00;99.90;;;;;;4985402;28;19968;-78
2022/11/28 00:45:54;;;;;;;;;;;15.80;99.90;;;;;;4998662;28;19913;-78
2022/11/28 00:48:20;;;;;;;;;;;15.90;99.90;;;;;;4989584;28;20128;-79
2022/11/28 00:50:45;;;;;;;;;;;15.90;99.90;;;;;;5010715;28;19952;-78
2022/11/28 00:53:11;;;;;;;;;;;16.00;99.90;;;;;;4997241;28;19909;-79
2022/11/28 00:55:40;;;;;;;;;;;16.20;99.90;;;;;;4998747;28;19909;-77
2022/11/28 00:58:05;;;;;;;;;;;16.00;99.90;;;;;;4996934;28;20374;-78
2022/11/28 01:00:31;;;;;;;;;;;16.10;99.90;;;;;;4998302;28;19921;-80
2022/11/28 01:02:57;;;;;;;;;;;16.20;99.90;;;;;;4993039;28;19910;-80
2022/11/28 01:05:22;;;;;;;;;;;16.40;99.90;;;;;;4998940;28;19914;-79
2022/11/28 01:07:48;;;;;;;;;;;16.40;99.90;;;;;;4999842;28;20033;-77
2022/11/28 01:10:14;;;;;;;;;;;16.60;99.90;;;;;;5003245;28;19956;-78
2022/11/28 01:12:39;;;;;;;;;;;16.40;99.90;;;;;;4993128;28;19956;-79
2022/11/28 01:15:06;;;;;;;;;;;16.50;99.90;;;;;;4990001;28;19964;-78
2022/11/28 01:17:32;;;;;;;;;;;16.60;99.90;;;;;;5004082;28;19917;-78
2022/11/28 01:19:58;;;;;;;;;;;16.60;99.90;;;;;;4992418;28;19909;-76
2022/11/28 01:22:23;;;;;;;;;;;16.80;99.90;;;;;;4997028;28;19964;-76
2022/11/28 01:24:49;;;;;;;;;;;16.90;99.90;;;;;;5000346;28;20458;-76
2022/11/28 01:27:14;;;;;;;;;;;16.70;99.90;;;;;;4992428;28;20434;-75
2022/11/28 01:29:40;;;;;;;;;;;16.70;99.90;;;;;;4991935;28;20228;-77
2022/11/28 01:32:05;;;;;;;;;;;17.00;99.90;;;;;;4997991;28;20203;-75
2022/11/28 01:34:31;;;;;;;;;;;16.80;99.90;;;;;;4980808;28;20181;-75
2022/11/28 01:36:56;;;;;;;;;;;16.70;99.90;;;;;;4996142;28;19914;-76
2022/11/28 01:39:22;;;;;;;;;;;17.00;99.90;;;;;;4983292;28;20016;-76
2022/11/28 01:41:47;;;;;;;;;;;17.10;99.90;;;;;;4993573;28;19910;-76
2022/11/28 01:44:13;;;;;;;;;;;16.90;99.90;;;;;;4987599;28;19914;-75
2022/11/28 01:46:38;;;;;;;;;;;17.00;99.90;;;;;;5011837;28;19910;-76
2022/11/28 01:49:12;;;;;;;;;;;17.10;99.90;;;;;;4988390;28;19963;-77
2022/11/28 01:51:39;;;;;;;;;;;17.00;99.90;;;;;;4997049;28;19925;-75
2022/11/28 01:54:05;;;;;;;;;;;17.10;99.90;;;;;;4981251;28;19944;-76
2022/11/28 01:56:37;;;;;;;;;;;17.30;99.90;;;;;;4983957;28;19937;-76
2022/11/28 01:59:06;;;;;;;;;;;17.00;99.90;;;;;;4994099;28;20367;-75
2022/11/28 02:01:31;;;;;;;;;;;17.10;99.90;;;;;;4982872;28;20292;-75
2022/11/28 02:03:57;;;;;;;;;;;17.30;99.90;;;;;;4988474;28;19918;-76
2022/11/28 02:06:23;;;;;;;;;;;17.10;99.90;;;;;;4996695;28;19964;-76
2022/11/28 02:08:50;;;;;;;;;;;17.00;99.90;;;;;;4999499;28;20336;-77
2022/11/28 02:11:15;;;;;;;;;;;17.20;99.90;;;;;;4998717;28;19910;-75
2022/11/28 02:13:54;;;;;;;;;;;17.10;99.90;;;;;;4989409;28;19952;-77
2022/11/28 02:16:34;;;;;;;;;;;17.20;99.90;;;;;;4991124;28;19925;-77
2022/11/28 02:19:05;;;;;;;;;;;17.20;99.90;;;;;;4991283;28;19960;-76
2022/11/28 02:21:34;;;;;;;;;;;17.10;99.90;;;;;;5003020;28;19949;-76
2022/11/28 02:24:08;;;;;;;;;;;17.00;99.90;;;;;;4999269;28;20065;-75
2022/11/28 02:26:51;;;;;;;;;;;17.00;99.90;;;;;;4989339;28;19917;-76
2022/11/28 02:29:28;;;;;;;;;;;17.20;99.90;;;;;;5015624;28;19921;-76
2022/11/28 02:32:13;;;;;;;;;;;17.20;99.90;;;;;;4995017;28;19913;-76
2022/11/28 02:34:50;;;;;;;;;;;16.90;99.90;;;;;;4984829;28;19953;-76
2022/11/28 02:37:36;;;;;;;;;;;17.10;99.90;;;;;;4987050;28;20004;-76
2022/11/28 02:40:06;;;;;;;;;;;17.10;99.90;;;;;;4979096;28;20296;-76
2022/11/28 02:42:38;;;;;;;;;;;17.10;99.90;;;;;;4989255;28;20241;-76
2022/11/28 02:45:11;;;;;;;;;;;17.00;99.90;;;;;;4999666;28;19924;-76
2022/11/28 02:47:42;;;;;;;;;;;17.00;99.90;;;;;;4993152;28;20366;-76
2022/11/28 02:50:10;;;;;;;;;;;17.10;99.90;;;;;;5001361;28;19910;-75
2022/11/28 02:52:40;;;;;;;;;;;16.80;99.90;;;;;;5001659;28;19910;-75
2022/11/28 02:55:07;;;;;;;;;;;16.80;99.90;;;;;;5003933;28;19909;-76
2022/11/28 02:57:40;;;;;;;;;;;17.20;99.90;;;;;;4997670;28;20153;-75
2022/11/28 03:00:24;;;;;;;;;;;17.00;99.90;;;;;;4998978;28;19988;-75
2022/11/28 03:02:54;;;;;;;;;;;16.80;99.90;;;;;;5010607;28;19909;-76
2022/11/28 03:05:22;;;;;;;;;;;16.90;99.90;;;;;;5001044;28;19910;-75
2022/11/28 03:08:04;;;;;;;;;;;16.80;99.90;;;;;;5005955;28;20121;-76
2022/11/28 03:10:49;;;;;;;;;;;16.90;99.90;;;;;;5000415;28;19949;-76
2022/11/28 03:13:14;;;;;;;;;;;16.90;99.90;;;;;;4993507;28;19972;-75
2022/11/28 03:15:52;;;;;;;;;;;16.90;99.90;;;;;;4985562;28;19921;-76
2022/11/28 03:18:38;;;;;;;;;;;16.80;99.90;;;;;;4993704;28;20307;-77
2022/11/28 03:21:27;;;;;;;;;;;16.70;99.90;;;;;;4992494;28;20008;-77
2022/11/28 03:24:12;;;;;;;;;;;16.60;99.90;;;;;;4972133;28;19914;-75
2022/11/28 03:27:01;;;;;;;;;;;16.50;99.90;;;;;;4991250;28;19910;-77
2022/11/28 03:29:39;;;;;;;;;;;16.80;99.90;;;;;;4993632;28;19910;-77
2022/11/28 03:32:10;;;;;;;;;;;16.80;99.90;;;;;;4990855;28;19961;-76
2022/11/28 03:34:37;;;;;;;;;;;16.70;99.90;;;;;;4980104;28;19917;-76
2022/11/28 03:37:07;;;;;;;;;;;16.60;99.90;;;;;;4998404;28;19925;-77
2022/11/28 03:39:36;;;;;;;;;;;16.60;99.90;;;;;;4987633;28;19910;-76
2022/11/28 03:42:01;;;;;;;;;;;16.40;99.90;;;;;;5001878;28;19929;-75
2022/11/28 03:44:28;;;;;;;;;;;16.60;99.90;;;;;;5012348;28;19918;-78
2022/11/28 03:46:56;;;;;;;;;;;16.60;99.90;;;;;;4995370;28;19945;-75
2022/11/28 03:49:24;;;;;;;;;;;16.50;99.90;;;;;;5004983;28;19925;-76
2022/11/28 03:52:03;;;;;;;;;;;16.50;99.90;;;;;;4984834;28;19914;-76
2022/11/28 03:54:29;;;;;;;;;;;16.30;99.90;;;;;;4989401;28;19910;-77
2022/11/28 03:57:20;;;;;;;;;;;16.50;99.90;;;;;;5011897;28;19932;-74
2022/11/28 03:59:51;;;;;;;;;;;16.20;99.90;;;;;;4982017;28;20292;-75
2022/11/28 04:02:28;;;;;;;;;;;16.40;99.90;;;;;;4991480;28;20025;-76
2022/11/28 04:04:56;;;;;;;;;;;16.50;99.90;;;;;;4994338;28;19920;-76
2022/11/28 04:07:31;;;;;;;;;;;16.40;99.90;;;;;;4984461;28;20435;-76
2022/11/28 04:09:56;;;;;;;;;;;16.50;99.90;;;;;;4989112;28;19913;-76
2022/11/28 04:12:31;;;;;;;;;;;16.50;99.90;;;;;;4990311;28;19980;-77
2022/11/28 04:15:05;;;;;;;;;;;16.50;99.90;;;;;;4982042;28;19913;-76
2022/11/28 04:17:32;;;;;;;;;;;16.60;99.90;;;;;;4986846;28;20210;-76
2022/11/28 04:20:02;;;;;;;;;;;16.30;99.90;;;;;;5005840;28;19960;-75
2022/11/28 04:22:36;;;;;;;;;;;16.50;99.90;;;;;;4982558;28;19975;-76
2022/11/28 04:25:13;;;;;;;;;;;16.30;99.90;;;;;;4978969;28;19924;-76
2022/11/28 04:27:59;;;;;;;;;;;16.30;99.90;;;;;;4993511;28;19921;-75
2022/11/28 04:30:25;;;;;;;;;;;16.60;99.90;;;;;;4982036;28;19988;-76
2022/11/28 04:32:52;;;;;;;;;;;16.50;99.90;;;;;;4991998;28;19910;-76
2022/11/28 04:35:22;;;;;;;;;;;16.40;99.90;;;;;;4995971;28;19917;-76
2022/11/28 04:37:49;;;;;;;;;;;16.50;99.90;;;;;;4993475;28;19914;-75
2022/11/28 04:40:16;;;;;;;;;;;16.20;99.90;;;;;;4995284;28;19932;-75
2022/11/28 04:42:44;;;;;;;;;;;16.20;99.90;;;;;;5011323;28;19910;-75
2022/11/28 04:45:14;;;;;;;;;;;16.20;99.90;;;;;;5002425;28;19920;-76
2022/11/28 04:47:41;;;;;;;;;;;16.50;99.90;;;;;;5000595;28;19910;-76
2022/11/28 04:50:07;;;;;;;;;;;16.20;99.90;;;;;;5000046;28;19914;-76
2022/11/28 04:53:01;;;;;;;;;;;16.40;99.90;;;;;;4997628;28;19916;-75
2022/11/28 04:55:36;;;;;;;;;;;16.20;99.90;;;;;;4979708;28;19929;-75
2022/11/28 04:58:10;;;;;;;;;;;16.20;99.90;;;;;;4982369;28;19989;-75
2022/11/28 05:00:36;;;;;;;;;;;16.50;99.90;;;;;;4994974;28;19945;-76
2022/11/28 05:03:02;;;;;;;;;;;16.30;99.90;;;;;;4989990;28;20176;-76
2022/11/28 05:05:29;;;;;;;;;;;16.30;99.90;;;;;;4985950;28;20260;-76
2022/11/28 05:07:56;;;;;;;;;;;16.30;99.90;;;;;;4989706;28;19929;-76
2022/11/28 05:10:21;;;;;;;;;;;16.20;99.90;;;;;;4986106;28;20197;-76
2022/11/28 05:12:47;;;;;;;;;;;16.30;99.90;;;;;;4986121;28;20358;-76
2022/11/28 05:15:17;;;;;;;;;;;16.30;99.90;;;;;;4987694;28;19988;-76
2022/11/28 05:17:44;;;;;;;;;;;16.30;99.90;;;;;;4992451;28;20005;-75
2022/11/28 05:20:10;;;;;;;;;;;16.20;99.90;;;;;;5000881;28;19916;-77
2022/11/28 05:22:35;;;;;;;;;;;16.40;99.90;;;;;;5000284;28;20414;-76
2022/11/28 05:25:00;;;;;;;;;;;16.20;99.90;;;;;;4988615;28;19914;-76
2022/11/28 05:27:26;;;;;;;;;;;16.20;99.90;;;;;;5009099;28;19972;-75
2022/11/28 05:29:52;;;;;;;;;;;16.20;99.90;;;;;;4994288;28;20017;-76
2022/11/28 05:32:18;;;;;;;;;;;16.10;99.90;;;;;;4999302;28;20414;-75
2022/11/28 05:34:43;;;;;;;;;;;16.30;99.90;;;;;;5002930;28;19949;-76
2022/11/28 05:37:09;;;;;;;;;;;16.30;99.90;;;;;;4989177;28;19943;-76
2022/11/28 05:39:34;;;;;;;;;;;16.30;99.90;;;;;;4990448;28;20337;-77
2022/11/28 05:42:00;;;;;;;;;;;16.20;99.90;;;;;;4987179;28;20406;-77
2022/11/28 05:44:25;;;;;;;;;;;16.30;99.90;;;;;;4990333;28;19924;-78
2022/11/28 05:46:51;;;;;;;;;;;16.30;99.90;;;;;;4999828;28;19914;-76
2022/11/28 05:49:19;;;;;;;;;;;16.40;99.90;;;;;;4988592;28;20386;-75
2022/11/28 05:51:45;;;;;;;;;;;16.20;99.90;;;;;;4989622;28;19914;-76
2022/11/28 05:54:10;;;;;;;;;;;16.00;99.90;;;;;;4985154;28;19943;-75
2022/11/28 05:56:36;;;;;;;;;;;16.10;99.90;;;;;;4983628;28;20004;-74
2022/11/28 05:59:01;;;;;;;;;;;16.00;99.90;;;;;;4984329;28;20218;-76
2022/11/28 06:01:28;;;;;;;;;;;15.90;99.90;;;;;;4984271;28;19944;-76
2022/11/28 06:03:59;;;;;;;;;;;15.90;99.90;;;;;;4982593;28;19913;-76
2022/11/28 06:06:25;;;;;;;;;;;16.00;99.90;;;;;;4980205;28;20281;-76
2022/11/28 06:08:51;;;;;;;;;;;15.90;99.90;;;;;;4981479;28;20376;-76
2022/11/28 06:11:18;;;;;;;;;;;15.90;99.90;;;;;;4982155;28;19958;-77
2022/11/28 06:13:44;;;;;;;;;;;16.00;99.90;;;;;;4978989;28;20402;-76
2022/11/28 06:16:11;;;;;;;;;;;16.00;99.90;;;;;;4981186;28;19917;-76
2022/11/28 06:18:38;;;;;;;;;;;15.70;99.90;;;;;;4982250;28;19922;-75
2022/11/28 06:21:04;;;;;;;;;;;16.00;99.90;;;;;;4987377;28;20367;-75
2022/11/28 06:23:30;;;;;;;;;;;15.80;99.90;;;;;;4980828;28;19918;-75
2022/11/28 06:25:55;;;;;;;;;;;15.70;99.90;;;;;;4985383;28;20326;-76
2022/11/28 06:28:21;;;;;;;;;;;15.90;99.90;;;;;;4979777;28;19910;-76
2022/11/28 06:30:47;;;;;;;;;;;15.80;99.90;;;;;;4984615;28;20016;-75
2022/11/28 06:33:12;;;;;;;;;;;15.70;99.90;;;;;;4982270;28;19960;-75
2022/11/28 06:35:38;;;;;;;;;;;15.90;99.90;;;;;;4985607;28;19910;-75
2022/11/28 06:38:03;;;;;;;;;;;16.00;99.90;;;;;;4981472;28;19914;-76
2022/11/28 06:40:29;;;;;;;;;;;15.80;99.90;;;;;;4991512;28;20331;-76
2022/11/28 06:42:54;;;;;;;;;;;15.90;99.90;;;;;;4995304;28;19936;-75
2022/11/28 06:45:20;;;;;;;;;;;16.00;99.90;;;;;;4993161;28;19913;-76
2022/11/28 06:47:45;;;;;;;;;;;15.80;99.90;;;;;;5003804;28;20322;-75
2022/11/28 06:50:11;;;;;;;;;;;15.90;99.90;;;;;;4991618;28;19910;-76
2022/11/28 06:52:36;;;;;;;;;;;15.70;99.90;;;;;;4987238;28;20358;-75
2022/11/28 06:55:02;;;;;;;;;;;15.80;99.90;;;;;;4992171;28;19917;-75
2022/11/28 06:57:27;;;;;;;;;;;15.70;99.90;;;;;;4986787;28;19910;-76
2022/11/28 06:59:53;;;;;;;;;;;15.90;99.90;;;;;;4986571;28;19918;-75
2022/11/28 07:02:18;;;;;;;;;;;15.80;99.90;;;;;;4990644;28;19914;-76
2022/11/28 07:04:44;;;;;;;;;;;15.80;99.90;;;;;;5004645;28;20363;-75
2022/11/28 07:07:09;;;;;;;;;;;15.90;99.90;;;;;;4982332;28;20261;-76
2022/11/28 07:09:35;;;;;;;;;;;15.80;99.90;;;;;;4983027;28;19910;-76
2022/11/28 07:12:00;;;;;;;;;;;15.90;99.90;;;;;;4979514;28;19914;-75
2022/11/28 07:14:26;;;;;;;;;;;15.70;99.90;;;;;;4983349;28;19917;-76
2022/11/28 07:16:52;;;;;;;;;;;15.50;99.90;;;;;;4983215;28;19909;-75
2022/11/28 07:19:21;;;;;;;;;;;15.60;99.90;;;;;;4983941;28;20345;-75
2022/11/28 07:21:47;;;;;;;;;;;15.60;99.90;;;;;;4985775;28;19968;-75
2022/11/28 07:24:13;;;;;;;;;;;15.50;99.90;;;;;;4982861;28;19937;-75
2022/11/28 07:26:39;;;;;;;;;;;15.70;99.90;;;;;;5004786;28;19917;-75
2022/11/28 07:29:06;;;;;;;;;;;15.80;99.90;;;;;;4991296;28;19910;-77
2022/11/28 07:31:32;;;;;;;;;;;15.60;99.90;;;;;;4985295;28;20287;-76
2022/11/28 07:33:59;;;;;;;;;;;15.60;99.90;;;;;;5002090;28;19917;-74
2022/11/28 07:36:26;;;;;;;;;;;15.60;99.90;;;;;;4987104;28;19910;-75
2022/11/28 07:38:53;;;;;;;;;;;15.80;99.90;;;;;;4986378;28;19913;-75
2022/11/28 07:41:19;;;;;;;;;;;15.90;99.90;;;;;;4986745;28;20383;-76
2022/11/28 07:43:45;;;;;;;;;;;15.80;99.90;;;;;;4991266;28;19957;-76
2022/11/28 07:46:12;;;;;;;;;;;15.70;99.90;;;;;;4989691;28;20339;-76
2022/11/28 07:48:37;;;;;;;;;;;15.90;99.90;;;;;;4988592;28;20009;-76
2022/11/28 07:51:04;;;;;;;;;;;15.70;99.90;;;;;;4988810;28;20044;-75
2022/11/28 07:53:30;;;;;;;;;;;15.80;99.90;;;;;;4995497;28;19953;-75
2022/11/28 07:55:59;;;;;;;;;;;15.90;99.90;;;;;;4998354;28;19924;-77
2022/11/28 07:58:25;;;;;;;;;;;15.90;99.90;;;;;;4999178;28;19914;-76
2022/11/28 08:00:51;;;;;;;;;;;16.10;99.90;;;;;;5002021;28;20100;-78
2022/11/28 08:03:17;;;;;;;;;;;16.10;99.90;;;;;;4998241;28;19917;-76
2022/11/28 08:05:48;;;;;;;;;;;16.10;99.90;;;;;;4997711;28;19910;-79
2022/11/28 08:08:16;;;;;;;;;;;16.00;99.90;;;;;;5020781;28;20610;-80
2022/11/28 08:10:42;;;;;;;;;;;16.20;99.90;;;;;;5024324;28;19909;-80
2022/11/28 08:13:09;;;;;;;;;;;16.40;99.90;;;;;;5018152;28;20200;-82
2022/11/28 08:15:36;;;;;;;;;;;16.20;99.90;;;;;;5015631;28;19925;-82
2022/11/28 08:18:02;;;;;;;;;;;16.20;99.90;;;;;;5026523;28;19898;-81
2022/11/28 08:20:27;;;;;;;;;;;16.40;99.90;;;;;;5009730;28;20607;-80
2022/11/28 08:22:57;;;;;;;;;;;16.20;99.90;;;;;;5013524;28;19898;-81
2022/11/28 08:25:23;;;;;;;;;;;16.30;99.90;;;;;;5006336;28;19914;-80
2022/11/28 08:27:49;;;;;;;;;;;16.40;99.90;;;;;;5014645;28;19917;-81
2022/11/28 08:30:15;;;;;;;;;;;16.40;99.90;;;;;;5009346;28;20674;-78
2022/11/28 08:32:41;;;;;;;;;;;16.40;99.90;;;;;;4991211;28;20372;-78
2022/11/28 08:35:06;;;;;;;;;;;16.40;99.90;;;;;;4987797;28;19917;-80
2022/11/28 08:37:32;;;;;;;;;;;16.30;99.90;;;;;;4987548;28;19921;-78
2022/11/28 08:39:57;;;;;;;;;;;16.30;99.90;;;;;;4988787;28;19918;-78
2022/11/28 08:42:23;;;;;;;;;;;16.60;99.90;;;;;;4988383;28;19944;-78
2022/11/28 08:44:48;;;;;;;;;;;16.60;99.90;;;;;;4993801;28;19925;-80
2022/11/28 08:47:14;;;;;;;;;;;16.70;99.90;;;;;;4994272;28;19910;-77
2022/11/28 08:49:39;;;;;;;;;;;16.70;99.90;;;;;;4992726;28;19956;-78
2022/11/28 08:52:05;;;;;;;;;;;16.80;99.90;;;;;;4997979;28;19910;-78
2022/11/28 08:54:31;;;;;;;;;;;16.90;99.90;;;;;;4999967;28;19910;-78
2022/11/28 08:56:57;;;;;;;;;;;16.80;99.90;;;;;;4990044;28;19914;-77
2022/11/28 08:59:23;;;;;;;;;;;16.90;99.90;;;;;;4992298;28;19918;-81
2022/11/28 09:01:51;;;;;;;;;;;16.90;99.90;;;;;;4986550;28;19925;-77
2022/11/28 09:04:16;;;;;;;;;;;16.70;99.90;;;;;;4988233;28;19914;-78
2022/11/28 09:06:42;;;;;;;;;;;16.70;99.90;;;;;;4987344;28;19913;-78
2022/11/28 09:09:07;;;;;;;;;;;16.70;99.90;;;;;;4990748;28;19939;-76
2022/11/28 09:11:34;;;;;;;;;;;16.90;99.90;;;;;;4986587;28;20167;-77
2022/11/28 09:13:59;;;;;;;;;;;16.80;99.90;;;;;;4986226;28;19914;-78
2022/11/28 09:16:25;;;;;;;;;;;17.10;99.90;;;;;;4989702;28;19917;-78
2022/11/28 09:18:50;;;;;;;;;;;17.00;99.90;;;;;;4989131;28;19913;-77
2022/11/28 09:21:16;;;;;;;;;;;17.00;99.90;;;;;;4987579;28;20304;-77
2022/11/28 09:23:42;;;;;;;;;;;17.20;99.90;;;;;;4987648;28;19918;-77
2022/11/28 09:26:12;;;;;;;;;;;17.10;99.90;;;;;;4989861;28;19921;-77
2022/11/28 09:28:37;;;;;;;;;;;17.00;99.90;;;;;;4989150;28;20386;-78
2022/11/28 09:31:04;;;;;;;;;;;17.20;99.90;;;;;;4987281;28;19918;-78
2022/11/28 09:33:30;;;;;;;;;;;17.00;99.90;;;;;;4997958;28;19917;-78
2022/11/28 09:35:57;;;;;;;;;;;17.20;99.90;;;;;;4985151;28;20210;-77
2022/11/28 09:38:23;;;;;;;;;;;17.30;99.90;;;;;;4985805;28;20008;-78
2022/11/28 09:40:49;;;;;;;;;;;17.60;99.90;;;;;;4986346;28;20095;-78
2022/11/28 09:43:17;;;;;;;;;;;17.20;99.90;;;;;;4982539;28;20440;-77
2022/11/28 09:45:43;;;;;;;;;;;17.30;99.90;;;;;;4982970;28;20391;-77
2022/11/28 09:48:12;;;;;;;;;;;17.30;99.90;;;;;;4984481;28;20502;-79
2022/11/28 09:50:39;;;;;;;;;;;17.50;99.90;;;;;;4986111;28;20001;-79
2022/11/28 09:53:16;;;;;;;;;;;17.30;99.90;;;;;;4984337;28;20036;-78
2022/11/28 09:55:48;;;;;;;;;;;17.30;99.90;;;;;;4983737;28;20388;-79
2022/11/28 09:58:17;;;;;;;;;;;17.40;99.90;;;;;;4985084;28;20016;-77
2022/11/28 10:00:48;;;;;;;;;;;17.40;99.90;;;;;;4981397;28;19918;-78
2022/11/28 10:03:16;;;;;;;;;;;17.60;99.90;;;;;;4983911;28;19984;-77
2022/11/28 10:05:44;;;;;;;;;;;17.40;99.90;;;;;;4983767;28;19960;-78
2022/11/28 10:08:28;;;;;;;;;;;17.30;99.90;;;;;;4982081;28;19985;-77
2022/11/28 10:11:02;;;;;;;;;;;17.60;99.90;;;;;;4982534;28;20426;-76
2022/11/28 10:13:45;;;;;;;;;;;17.40;99.90;;;;;;4990012;28;19914;-77
2022/11/28 10:16:16;;;;;;;;;;;17.80;99.90;;;;;;4981847;28;19918;-77
2022/11/28 10:18:47;;;;;;;;;;;17.90;99.90;;;;;;4984120;28;20009;-78
2022/11/28 10:21:13;;;;;;;;;;;17.70;99.90;;;;;;4983053;28;19913;-77
2022/11/28 10:23:41;;;;;;;;;;;17.60;99.90;;;;;;4984905;28;19972;-78
2022/11/28 10:26:07;;;;;;;;;;;17.60;99.90;;;;;;4983764;28;20020;-77
2022/11/28 10:28:34;;;;;;;;;;;17.60;99.90;;;;;;4982160;28;20385;-77
2022/11/28 10:31:03;;;;;;;;;;;17.60;99.90;;;;;;4997729;28;20430;-76
2022/11/28 10:33:30;;;;;;;;;;;17.80;99.90;;;;;;4984259;28;20203;-77
2022/11/28 10:35:57;;;;;;;;;;;17.60;99.90;;;;;;4983960;28;20251;-76
2022/11/28 10:38:24;;;;;;;;;;;17.50;99.90;;;;;;4984864;28;19935;-77
2022/11/28 10:40:58;;;;;;;;;;;17.40;99.90;;;;;;4983114;28;19920;-76
2022/11/28 10:43:30;;;;;;;;;;;17.20;99.90;;;;;;4981415;28;19937;-78
2022/11/28 10:46:13;;;;;;;;;;;17.30;99.90;;;;;;4982470;28;19917;-77
2022/11/28 10:48:57;;;;;;;;;;;17.40;99.90;;;;;;4994942;28;19914;-77
2022/11/28 10:51:29;;;;;;;;;;;17.30;99.90;;;;;;4982978;28;20544;-76
2022/11/28 10:54:04;;;;;;;;;;;17.50;99.90;;;;;;4981411;28;20354;-76
2022/11/28 10:56:41;;;;;;;;;;;17.40;99.90;;;;;;4979911;28;19910;-75
2022/11/28 10:59:22;;;;;;;;;;;17.40;99.90;;;;;;4982323;28;20020;-74
2022/11/28 11:01:49;;;;;;;;;;;17.70;99.90;;;;;;4975332;28;20276;-76
2022/11/28 11:04:20;;;;;;;;;;;17.70;99.90;;;;;;4996337;28;19961;-75
2022/11/28 11:07:08;;;;;;;;;;;17.60;99.90;;;;;;4991982;28;19917;-75
2022/11/28 11:09:34;;;;;;;;;;;17.40;99.90;;;;;;4959687;28;19992;-75
2022/11/28 11:11:59;;;;;;;;;;;17.60;99.90;;;;;;4984942;28;20564;-75
2022/11/28 11:14:35;;;;;;;;;;;17.50;99.90;;;;;;4985346;28;19949;-78
2022/11/28 11:17:01;;;;;;;;;;;17.50;99.90;;;;;;4981682;28;19934;-76
2022/11/28 11:19:34;;;;;;;;;;;17.40;99.90;;;;;;4987589;28;20434;-75
2022/11/28 11:22:20;;;;;;;;;;;17.50;99.90;;;;;;4980448;28;19933;-76
2022/11/28 11:25:03;;;;;;;;;;;17.50;99.90;;;;;;4987607;28;20021;-75
2022/11/28 11:27:28;;;;;;;;;;;17.50;99.90;;;;;;4982368;28;19914;-75
2022/11/28 11:29:54;;;;;;;;;;;17.60;99.90;;;;;;4987656;28;19909;-75
2022/11/28 11:32:23;;;;;;;;;;;17.50;99.90;;;;;;4992739;28;19964;-76
2022/11/28 11:34:49;;;;;;;;;;;17.40;99.90;;;;;;5001192;28;19914;-74
2022/11/28 11:37:20;;;;;;;;;;;17.30;99.90;;;;;;4999353;28;19937;-76
2022/11/28 11:39:50;;;;;;;;;;;17.20;99.90;;;;;;4996237;28;20338;-75
2022/11/28 11:42:25;;;;;;;;;;;17.50;99.90;;;;;;5002580;28;20115;-76
2022/11/28 11:44:51;;;;;;;;;;;17.40;99.90;;;;;;4997135;28;20014;-76
2022/11/28 11:47:17;;;;;;;;;;;17.40;99.90;;;;;;4989248;28;19910;-75
2022/11/28 11:49:43;;;;;;;;;;;17.50;99.90;;;;;;4989174;28;19914;-75
2022/11/28 11:52:14;;;;;;;;;;;17.50;99.90;;;;;;4989616;28;20327;-77
2022/11/28 11:54:45;;;;;;;;;;;17.60;99.90;;;;;;4986545;28;19920;-75
2022/11/28 11:57:20;;;;;;;;;;;17.90;99.90;;;;;;5004005;28;19989;-75
2022/11/28 11:59:54;;;;;;;;;;;18.10;99.90;;;;;;4992199;28;20242;-76
2022/11/28 12:02:22;;;;;;;;;;;17.90;99.90;;;;;;4986989;28;20131;-76
2022/11/28 12:04:51;;;;;;;;;;;17.90;99.90;;;;;;4989529;28;19913;-75
2022/11/28 12:07:22;;;;;;;;;;;17.90;99.90;;;;;;4989995;28;19914;-75
2022/11/28 12:09:50;;;;;;;;;;;17.80;99.90;;;;;;5005222;28;19968;-76
2022/11/28 12:12:20;;;;;;;;;;;17.60;99.90;;;;;;5005114;28;20016;-76
2022/11/28 12:14:46;;;;;;;;;;;17.40;99.90;;;;;;4986790;28;20188;-75
2022/11/28 12:17:27;;;;;;;;;;;17.50;99.90;;;;;;4985793;28;19910;-76
2022/11/28 12:19:52;;;;;;;;;;;17.60;99.90;;;;;;4995826;28;19979;-77
2022/11/28 12:22:18;;;;;;;;;;;17.50;99.90;;;;;;4982776;28;19918;-75
2022/11/28 12:25:02;;;;;;;;;;;17.60;99.90;;;;;;4994706;28;19914;-77
2022/11/28 12:27:27;;;;;;;;;;;17.40;99.90;;;;;;4991635;28;20218;-76
2022/11/28 12:29:59;;;;;;;;;;;17.50;99.90;;;;;;5017948;28;19917;-76
2022/11/28 12:32:34;;;;;;;;;;;17.60;99.90;;;;;;5009227;28;19922;-78
2022/11/28 12:35:12;;;;;;;;;;;17.40;99.90;;;;;;5004720;28;20461;-76
2022/11/28 12:37:38;;;;;;;;;;;17.40;99.90;;;;;;4988309;28;19957;-76
2022/11/28 12:40:18;;;;;;;;;;;17.40;99.90;;;;;;4988707;28;19913;-78
2022/11/28 12:42:43;;;;;;;;;;;17.30;99.90;;;;;;5001397;28;19960;-75
2022/11/28 12:45:27;;;;;;;;;;;17.10;99.90;;;;;;4997290;28;19914;-75
2022/11/28 12:47:55;;;;;;;;;;;17.00;99.90;;;;;;5005095;28;20394;-72
2022/11/28 12:50:36;;;;;;;;;;;17.10;99.90;;;;;;4990438;28;19979;-76
2022/11/28 12:53:08;;;;;;;;;;;17.20;99.90;;;;;;4981216;28;20302;-77
2022/11/28 12:55:47;;;;;;;;;;;16.90;99.90;;;;;;4105231;28;10000576;-75
2022/11/28 12:58:31;;;;;;;;;;;16.80;99.90;;;;;;4967163;28;19914;-75
2022/11/28 13:01:12;;;;;;;;;;;16.80;99.90;;;;;;4966737;28;19992;-75
2022/11/28 13:03:57;;;;;;;;;;;16.80;99.90;;;;;;4966830;28;20012;-75
2022/11/28 13:06:31;;;;;;;;;;;16.80;99.90;;;;;;4961099;28;20325;-76
2022/11/28 13:09:15;;;;;;;;;;;16.70;99.90;;;;;;4969831;28;19990;-75
2022/11/28 13:11:46;;;;;;;;;;;16.70;99.90;;;;;;4969691;28;19972;-76
2022/11/28 13:14:12;;;;;;;;;;;16.70;99.90;;;;;;4980855;28;20438;-76
2022/11/28 13:16:41;;;;;;;;;;;16.60;99.90;;;;;;4963982;28;19963;-75
2022/11/28 13:19:11;;;;;;;;;;;16.70;99.90;;;;;;4991581;28;20446;-74
2022/11/28 13:21:36;;;;;;;;;;;16.40;99.90;;;;;;4972471;28;19967;-76
2022/11/28 13:24:20;;;;;;;;;;;16.60;99.90;;;;;;4974241;28;20600;-75
2022/11/28 13:26:57;;;;;;;;;;;16.60;99.90;;;;;;4997257;28;19914;-76
2022/11/28 13:29:42;;;;;;;;;;;16.40;99.90;;;;;;4967226;28;19918;-78
2022/11/28 13:32:26;;;;;;;;;;;16.30;99.90;;;;;;4964734;28;19914;-76
2022/11/28 13:34:52;;;;;;;;;;;16.20;99.90;;;;;;4963398;28;20327;-75
2022/11/28 13:37:19;;;;;;;;;;;16.40;99.90;;;;;;4963228;28;19910;-75
2022/11/28 13:39:49;;;;;;;;;;;16.40;99.90;;;;;;4994311;28;19917;-75
2022/11/28 13:42:14;;;;;;;;;;;16.20;99.90;;;;;;4971459;28;19920;-75
2022/11/28 13:44:44;;;;;;;;;;;16.20;99.90;;;;;;4965582;28;20007;-78
2022/11/28 13:47:23;;;;;;;;;;;16.10;99.90;;;;;;4967968;28;20070;-76
2022/11/28 13:49:48;;;;;;;;;;;16.00;99.90;;;;;;4973427;28;19949;-76
2022/11/28 13:52:17;;;;;;;;;;;15.90;99.90;;;;;;4965309;28;19961;-77
2022/11/28 13:54:52;;;;;;;;;;;15.90;99.90;;;;;;4952381;28;20197;-77
2022/11/28 13:57:17;;;;;;;;;;;15.80;99.90;;;;;;4964564;28;19950;-75
2022/11/28 13:59:51;;;;;;;;;;;15.90;99.90;;;;;;4969677;28;19973;-75
2022/11/28 14:02:20;;;;;;;;;;;15.90;99.90;;;;;;4974645;28;19949;-76
2022/11/28 14:04:45;;;;;;;;;;;16.00;99.90;;;;;;4974384;28;20324;-76
2022/11/28 14:07:22;;;;;;;;;;;16.10;99.90;;;;;;4966090;28;19980;-75
2022/11/28 14:10:14;;;;;;;;;;;16.10;99.90;;;;;;4971479;28;20226;-75
2022/11/28 14:12:39;;;;;;;;;;;16.00;99.90;;;;;;4951065;28;19942;-75
2022/11/28 14:15:06;;;;;;;;;;;15.80;99.90;;;;;;4960542;28;19945;-76
2022/11/28 14:17:50;;;;;;;;;;;16.00;99.90;;;;;;4962827;28;19981;-75
2022/11/28 14:20:34;;;;;;;;;;;16.00;99.90;;;;;;4967274;28;19918;-77
2022/11/28 14:22:59;;;;;;;;;;;16.00;99.90;;;;;;4971281;28;19910;-77
2022/11/28 14:25:27;;;;;;;;;;;16.00;99.90;;;;;;4988446;28;19921;-76
2022/11/28 14:27:55;;;;;;;;;;;15.80;99.90;;;;;;4969281;28;20609;-75
2022/11/28 14:30:32;;;;;;;;;;;15.70;99.90;;;;;;4967605;28;20384;-77